sensor_id;sensor_type;location;lat;lon;timestamp;pressure;altitude;pressure_sealevel;temperature;humidity
11676;BME280;5894;42.768;23.404;2023-04-26T00:02:18;94719.22;;;10.33;100.00
11676;BME280;5894;42.768;23.404;2023-04-26T00:04:45;94718.97;;;10.26;100.00
11676;BME280;5894;42.768;23.404;2023-04-26T00:07:12;94722.53;;;10.21;100.00
11676;BME280;5894;42.768;23.404;2023-04-26T00:09:40;94719.44;;;10.19;100.00
11676;BME280;5894;42.768;23.404;2023-04-26T00:12:08;94683.41;;;10.03;100.00
11676;BME280;5894;42.768;23.404;2023-04-26T00:14:36;94700.88;;;10.16;100.00
11676;BME280;5894;42.768;23.404;2023-04-26T00:17:05;94716.81;;;10.19;100.00
11676;BME280;5894;42.768;23.404;2023-04-26T00:19:32;94668.56;;;9.98;100.00
11676;BME280;5894;42.768;23.404;2023-04-26T00:21:59;94698.06;;;10.21;100.00
11676;BME280;5894;42.768;23.404;2023-04-26T00:24:25;94686.47;;;10.13;100.00
11676;BME280;5894;42.768;23.404;2023-04-26T00:26:53;94669.66;;;9.97;100.00
11676;BME280;5894;42.768;23.404;2023-04-26T00:29:20;94684.91;;;10.12;100.00
11676;BME280;5894;42.768;23.404;2023-04-26T00:31:47;94656.34;;;9.93;100.00
11676;BME280;5894;42.768;23.404;2023-04-26T00:34:16;94680.53;;;9.96;100.00
11676;BME280;5894;42.768;23.404;2023-04-26T00:36:43;94683.88;;;10.05;100.00
11676;BME280;5894;42.768;23.404;2023-04-26T00:39:10;94677.94;;;10.08;100.00
11676;BME280;5894;42.768;23.404;2023-04-26T00:41:37;94685.75;;;10.04;100.00
11676;BME280;5894;42.768;23.404;2023-04-26T00:44:04;94653.78;;;9.85;100.00
11676;BME280;5894;42.768;23.404;2023-04-26T00:46:32;94677.38;;;10.02;100.00
11676;BME280;5894;42.768;23.404;2023-04-26T00:48:59;94675.66;;;10.06;100.00
11676;BME280;5894;42.768;23.404;2023-04-26T00:51:27;94680.59;;;10.08;100.00
11676;BME280;5894;42.768;23.404;2023-04-26T00:53:54;94673.81;;;9.98;100.00
11676;BME280;5894;42.768;23.404;2023-04-26T00:56:23;94674.66;;;9.90;100.00
11676;BME280;5894;42.768;23.404;2023-04-26T00:58:50;94678.06;;;9.90;100.00
11676;BME280;5894;42.768;23.404;2023-04-26T01:01:17;94678.69;;;9.87;100.00
11676;BME280;5894;42.768;23.404;2023-04-26T01:03:44;94682.25;;;9.91;100.00
11676;BME280;5894;42.768;23.404;2023-04-26T01:06:12;94681.81;;;9.81;100.00
11676;BME280;5894;42.768;23.404;2023-04-26T01:08:40;94686.50;;;9.75;100.00
11676;BME280;5894;42.768;23.404;2023-04-26T01:11:07;94690.53;;;9.73;100.00
11676;BME280;5894;42.768;23.404;2023-04-26T01:13:35;94678.31;;;9.68;100.00
11676;BME280;5894;42.768;23.404;2023-04-26T01:16:02;94651.34;;;9.42;100.00
11676;BME280;5894;42.768;23.404;2023-04-26T01:18:30;94687.75;;;9.69;100.00
11676;BME280;5894;42.768;23.404;2023-04-26T01:20:57;94662.44;;;9.47;100.00
11676;BME280;5894;42.768;23.404;2023-04-26T01:23:28;94688.06;;;9.68;100.00
11676;BME280;5894;42.768;23.404;2023-04-26T01:25:55;94681.59;;;9.65;100.00
11676;BME280;5894;42.768;23.404;2023-04-26T01:28:22;94692.13;;;9.65;100.00
11676;BME280;5894;42.768;23.404;2023-04-26T01:30:49;94679.13;;;9.60;100.00
11676;BME280;5894;42.768;23.404;2023-04-26T01:33:16;94677.41;;;9.64;100.00
11676;BME280;5894;42.768;23.404;2023-04-26T01:35:43;94685.44;;;9.68;100.00
11676;BME280;5894;42.768;23.404;2023-04-26T01:38:10;94604.34;;;9.23;100.00
11676;BME280;5894;42.768;23.404;2023-04-26T01:40:40;94691.78;;;9.75;100.00
11676;BME280;5894;42.768;23.404;2023-04-26T01:43:10;94694.09;;;9.68;100.00
11676;BME280;5894;42.768;23.404;2023-04-26T01:45:37;94662.97;;;9.32;100.00
11676;BME280;5894;42.768;23.404;2023-04-26T01:48:22;94697.72;;;9.55;100.00
11676;BME280;5894;42.768;23.404;2023-04-26T01:50:49;94698.47;;;9.64;100.00
11676;BME280;5894;42.768;23.404;2023-04-26T01:53:16;94701.25;;;9.59;100.00
11676;BME280;5894;42.768;23.404;2023-04-26T01:55:44;94713.53;;;9.46;100.00
11676;BME280;5894;42.768;23.404;2023-04-26T01:58:11;94711.53;;;9.43;100.00
11676;BME280;5894;42.768;23.404;2023-04-26T02:00:38;94713.72;;;9.41;100.00
11676;BME280;5894;42.768;23.404;2023-04-26T02:03:04;94706.75;;;9.37;100.00
11676;BME280;5894;42.768;23.404;2023-04-26T02:05:31;94701.97;;;9.30;100.00
11676;BME280;5894;42.768;23.404;2023-04-26T02:07:58;94695.16;;;9.29;100.00
11676;BME280;5894;42.768;23.404;2023-04-26T02:10:25;94684.19;;;9.27;100.00
11676;BME280;5894;42.768;23.404;2023-04-26T02:12:53;94683.59;;;9.22;100.00
11676;BME280;5894;42.768;23.404;2023-04-26T02:15:20;94680.34;;;9.16;100.00
11676;BME280;5894;42.768;23.404;2023-04-26T02:17:48;94674.00;;;9.17;100.00
11676;BME280;5894;42.768;23.404;2023-04-26T02:20:15;94678.00;;;9.23;100.00
11676;BME280;5894;42.768;23.404;2023-04-26T02:22:42;94664.09;;;9.23;100.00
11676;BME280;5894;42.768;23.404;2023-04-26T02:25:08;94655.44;;;9.13;100.00
11676;BME280;5894;42.768;23.404;2023-04-26T02:27:36;94660.06;;;9.16;100.00
11676;BME280;5894;42.768;23.404;2023-04-26T02:30:05;94650.50;;;9.03;100.00
11676;BME280;5894;42.768;23.404;2023-04-26T02:32:33;94647.88;;;9.03;100.00
11676;BME280;5894;42.768;23.404;2023-04-26T02:35:01;94640.31;;;9.02;100.00
11676;BME280;5894;42.768;23.404;2023-04-26T02:37:27;94658.59;;;8.90;100.00
11676;BME280;5894;42.768;23.404;2023-04-26T02:39:55;94658.28;;;8.65;100.00
11676;BME280;5894;42.768;23.404;2023-04-26T02:42:21;94663.38;;;8.62;100.00
11676;BME280;5894;42.768;23.404;2023-04-26T02:44:48;94668.97;;;8.69;100.00
11676;BME280;5894;42.768;23.404;2023-04-26T02:47:17;94681.34;;;8.68;100.00
11676;BME280;5894;42.768;23.404;2023-04-26T02:49:45;94678.41;;;8.70;100.00
11676;BME280;5894;42.768;23.404;2023-04-26T02:52:12;94684.44;;;8.70;100.00
11676;BME280;5894;42.768;23.404;2023-04-26T02:54:38;94684.44;;;8.70;100.00
11676;BME280;5894;42.768;23.404;2023-04-26T02:57:05;94679.78;;;8.76;100.00
11676;BME280;5894;42.768;23.404;2023-04-26T02:59:34;94678.69;;;8.86;100.00
11676;BME280;5894;42.768;23.404;2023-04-26T03:02:00;94682.84;;;8.95;100.00
11676;BME280;5894;42.768;23.404;2023-04-26T03:04:31;94684.25;;;8.93;100.00
11676;BME280;5894;42.768;23.404;2023-04-26T03:07:01;94674.03;;;8.82;100.00
11676;BME280;5894;42.768;23.404;2023-04-26T03:09:29;94662.59;;;8.87;100.00
11676;BME280;5894;42.768;23.404;2023-04-26T03:11:56;94661.66;;;8.83;100.00
11676;BME280;5894;42.768;23.404;2023-04-26T03:14:22;94651.03;;;8.71;100.00
11676;BME280;5894;42.768;23.404;2023-04-26T03:16:49;94671.75;;;8.64;100.00
11676;BME280;5894;42.768;23.404;2023-04-26T03:19:16;94661.22;;;8.55;100.00
11676;BME280;5894;42.768;23.404;2023-04-26T03:21:46;94661.41;;;8.50;100.00
11676;BME280;5894;42.768;23.404;2023-04-26T03:24:12;94656.91;;;8.51;100.00
11676;BME280;5894;42.768;23.404;2023-04-26T03:26:39;94652.59;;;8.37;100.00
11676;BME280;5894;42.768;23.404;2023-04-26T03:29:06;94649.03;;;8.33;100.00
11676;BME280;5894;42.768;23.404;2023-04-26T03:31:33;94642.50;;;8.31;100.00
11676;BME280;5894;42.768;23.404;2023-04-26T03:34:00;94644.84;;;8.32;100.00
11676;BME280;5894;42.768;23.404;2023-04-26T03:36:27;94650.09;;;8.32;100.00
11676;BME280;5894;42.768;23.404;2023-04-26T03:38:55;94637.09;;;8.27;100.00
11676;BME280;5894;42.768;23.404;2023-04-26T03:41:24;94644.53;;;8.34;100.00
11676;BME280;5894;42.768;23.404;2023-04-26T03:43:52;94647.47;;;8.41;100.00
11676;BME280;5894;42.768;23.404;2023-04-26T03:46:19;94644.22;;;8.44;100.00
11676;BME280;5894;42.768;23.404;2023-04-26T03:48:47;94650.88;;;8.41;100.00
11676;BME280;5894;42.768;23.404;2023-04-26T03:51:13;94650.25;;;8.36;100.00
11676;BME280;5894;42.768;23.404;2023-04-26T03:53:40;94656.91;;;8.33;100.00
11676;BME280;5894;42.768;23.404;2023-04-26T03:56:09;94659.84;;;8.40;100.00
11676;BME280;5894;42.768;23.404;2023-04-26T03:58:36;94665.56;;;8.42;100.00
11676;BME280;5894;42.768;23.404;2023-04-26T04:01:03;94678.56;;;8.48;100.00
11676;BME280;5894;42.768;23.404;2023-04-26T04:03:29;94684.28;;;8.50;100.00
11676;BME280;5894;42.768;23.404;2023-04-26T04:05:56;94687.03;;;8.53;100.00
11676;BME280;5894;42.768;23.404;2023-04-26T04:08:23;94679.94;;;8.54;100.00
11676;BME280;5894;42.768;23.404;2023-04-26T04:10:50;94696.81;;;8.61;100.00
11676;BME280;5894;42.768;23.404;2023-04-26T04:13:19;94644.69;;;8.29;100.00
11676;BME280;5894;42.768;23.404;2023-04-26T04:15:46;94691.84;;;8.68;100.00
11676;BME280;5894;42.768;23.404;2023-04-26T04:18:13;94696.63;;;8.75;100.00
11676;BME280;5894;42.768;23.404;2023-04-26T04:20:40;94688.44;;;8.68;100.00
11676;BME280;5894;42.768;23.404;2023-04-26T04:23:08;94695.72;;;8.79;100.00
11676;BME280;5894;42.768;23.404;2023-04-26T04:25:37;94693.09;;;8.79;100.00
11676;BME280;5894;42.768;23.404;2023-04-26T04:28:07;94660.00;;;8.61;100.00
11676;BME280;5894;42.768;23.404;2023-04-26T04:30:35;94690.59;;;8.83;100.00
11676;BME280;5894;42.768;23.404;2023-04-26T04:33:02;94695.22;;;8.86;100.00
11676;BME280;5894;42.768;23.404;2023-04-26T04:35:31;94699.56;;;8.91;100.00
11676;BME280;5894;42.768;23.404;2023-04-26T04:38:00;94696.31;;;8.94;100.00
11676;BME280;5894;42.768;23.404;2023-04-26T04:40:27;94697.53;;;8.96;100.00
11676;BME280;5894;42.768;23.404;2023-04-26T04:42:55;94710.38;;;9.06;100.00
11676;BME280;5894;42.768;23.404;2023-04-26T04:45:24;94715.00;;;9.09;100.00
11676;BME280;5894;42.768;23.404;2023-04-26T04:47:55;94712.97;;;9.15;100.00
11676;BME280;5894;42.768;23.404;2023-04-26T04:50:22;94710.34;;;9.24;100.00
11676;BME280;5894;42.768;23.404;2023-04-26T04:52:49;94701.34;;;9.25;100.00
11676;BME280;5894;42.768;23.404;2023-04-26T04:55:16;94704.91;;;9.29;100.00
11676;BME280;5894;42.768;23.404;2023-04-26T04:57:45;94706.94;;;9.32;100.00
11676;BME280;5894;42.768;23.404;2023-04-26T05:00:13;94712.94;;;9.41;100.00
11676;BME280;5894;42.768;23.404;2023-04-26T05:02:46;94705.63;;;9.46;100.00
11676;BME280;5894;42.768;23.404;2023-04-26T05:05:15;94710.13;;;9.54;100.00
11676;BME280;5894;42.768;23.404;2023-04-26T05:07:42;94688.94;;;9.42;100.00
11676;BME280;5894;42.768;23.404;2023-04-26T05:10:11;94719.81;;;9.71;100.00
11676;BME280;5894;42.768;23.404;2023-04-26T05:12:39;94717.75;;;9.77;100.00
11676;BME280;5894;42.768;23.404;2023-04-26T05:15:07;94693.16;;;9.73;100.00
11676;BME280;5894;42.768;23.404;2023-04-26T05:17:34;94714.31;;;9.93;100.00
11676;BME280;5894;42.768;23.404;2023-04-26T05:20:11;94718.75;;;10.02;100.00
11676;BME280;5894;42.768;23.404;2023-04-26T05:22:40;94723.06;;;10.06;100.00
11676;BME280;5894;42.768;23.404;2023-04-26T05:25:09;94725.03;;;10.18;100.00
11676;BME280;5894;42.768;23.404;2023-04-26T05:27:38;94725.19;;;10.21;100.00
11676;BME280;5894;42.768;23.404;2023-04-26T05:30:15;94721.59;;;10.26;100.00
11676;BME280;5894;42.768;23.404;2023-04-26T05:32:44;94723.09;;;10.36;100.00
11676;BME280;5894;42.768;23.404;2023-04-26T05:35:32;94716.84;;;10.40;100.00
11676;BME280;5894;42.768;23.404;2023-04-26T05:38:00;94723.94;;;10.48;100.00
11676;BME280;5894;42.768;23.404;2023-04-26T05:40:27;94732.44;;;10.54;100.00
11676;BME280;5894;42.768;23.404;2023-04-26T05:42:54;94681.31;;;10.25;100.00
11676;BME280;5894;42.768;23.404;2023-04-26T05:45:21;94741.50;;;10.65;100.00
11676;BME280;5894;42.768;23.404;2023-04-26T05:47:49;94722.50;;;10.51;100.00
11676;BME280;5894;42.768;23.404;2023-04-26T05:50:16;94737.88;;;10.70;100.00
11676;BME280;5894;42.768;23.404;2023-04-26T05:52:43;94743.69;;;10.63;100.00
11676;BME280;5894;42.768;23.404;2023-04-26T05:55:11;94737.06;;;10.57;100.00
11676;BME280;5894;42.768;23.404;2023-04-26T05:57:38;94739.97;;;10.64;100.00
11676;BME280;5894;42.768;23.404;2023-04-26T06:00:06;94744.38;;;10.72;100.00
11676;BME280;5894;42.768;23.404;2023-04-26T06:02:41;94737.72;;;10.75;100.00
11676;BME280;5894;42.768;23.404;2023-04-26T06:05:13;94749.75;;;10.84;100.00
11676;BME280;5894;42.768;23.404;2023-04-26T06:07:41;94741.19;;;10.87;100.00
11676;BME280;5894;42.768;23.404;2023-04-26T06:10:09;94739.72;;;10.98;100.00
11676;BME280;5894;42.768;23.404;2023-04-26T06:12:39;94750.41;;;11.14;100.00
11676;BME280;5894;42.768;23.404;2023-04-26T06:15:07;94750.59;;;11.30;100.00
11676;BME280;5894;42.768;23.404;2023-04-26T06:17:37;94749.34;;;11.48;100.00
11676;BME280;5894;42.768;23.404;2023-04-26T06:20:04;94743.78;;;11.62;100.00
11676;BME280;5894;42.768;23.404;2023-04-26T06:22:31;94742.91;;;11.70;100.00
11676;BME280;5894;42.768;23.404;2023-04-26T06:24:58;94749.44;;;11.85;100.00
11676;BME280;5894;42.768;23.404;2023-04-26T06:27:25;94719.72;;;11.75;100.00
11676;BME280;5894;42.768;23.404;2023-04-26T06:29:54;94743.28;;;12.05;100.00
11676;BME280;5894;42.768;23.404;2023-04-26T06:32:23;94730.06;;;12.17;100.00
11676;BME280;5894;42.768;23.404;2023-04-26T06:34:50;94739.09;;;12.40;100.00
11676;BME280;5894;42.768;23.404;2023-04-26T06:37:17;94733.03;;;12.52;100.00
11676;BME280;5894;42.768;23.404;2023-04-26T06:39:44;94722.78;;;12.63;100.00
11676;BME280;5894;42.768;23.404;2023-04-26T06:42:11;94725.91;;;12.80;100.00
11676;BME280;5894;42.768;23.404;2023-04-26T06:44:58;94702.03;;;12.77;100.00
11676;BME280;5894;42.768;23.404;2023-04-26T06:47:25;94723.00;;;12.98;100.00
11676;BME280;5894;42.768;23.404;2023-04-26T06:49:53;94734.56;;;13.17;100.00
11676;BME280;5894;42.768;23.404;2023-04-26T06:52:21;94743.63;;;13.32;100.00
11676;BME280;5894;42.768;23.404;2023-04-26T06:54:47;94742.28;;;13.38;100.00
11676;BME280;5894;42.768;23.404;2023-04-26T06:57:14;94743.41;;;13.37;100.00
11676;BME280;5894;42.768;23.404;2023-04-26T06:59:41;94739.06;;;13.45;100.00
11676;BME280;5894;42.768;23.404;2023-04-26T07:02:09;94732.66;;;13.46;100.00
11676;BME280;5894;42.768;23.404;2023-04-26T07:04:36;94743.47;;;13.41;100.00
11676;BME280;5894;42.768;23.404;2023-04-26T07:07:03;94746.13;;;13.41;100.00
11676;BME280;5894;42.768;23.404;2023-04-26T07:09:30;94738.88;;;13.38;100.00
11676;BME280;5894;42.768;23.404;2023-04-26T07:11:56;94736.31;;;13.41;100.00
11676;BME280;5894;42.768;23.404;2023-04-26T07:14:23;94743.97;;;13.58;100.00
11676;BME280;5894;42.768;23.404;2023-04-26T07:16:50;94743.47;;;13.69;100.00
11676;BME280;5894;42.768;23.404;2023-04-26T07:19:19;94740.72;;;13.65;100.00
11676;BME280;5894;42.768;23.404;2023-04-26T07:21:46;94755.09;;;13.80;100.00
11676;BME280;5894;42.768;23.404;2023-04-26T07:24:12;94750.41;;;13.89;100.00
11676;BME280;5894;42.768;23.404;2023-04-26T07:26:39;94746.88;;;13.85;100.00
11676;BME280;5894;42.768;23.404;2023-04-26T07:29:06;94760.94;;;14.01;100.00
11676;BME280;5894;42.768;23.404;2023-04-26T07:31:33;94754.09;;;14.00;100.00
11676;BME280;5894;42.768;23.404;2023-04-26T07:34:01;94758.00;;;14.06;100.00
11676;BME280;5894;42.768;23.404;2023-04-26T07:36:29;94757.94;;;14.18;100.00
11676;BME280;5894;42.768;23.404;2023-04-26T07:38:56;94765.38;;;14.28;100.00
11676;BME280;5894;42.768;23.404;2023-04-26T07:41:23;94782.03;;;14.29;100.00
11676;BME280;5894;42.768;23.404;2023-04-26T07:43:49;94766.91;;;14.29;100.00
11676;BME280;5894;42.768;23.404;2023-04-26T07:46:16;94775.69;;;14.33;100.00
11676;BME280;5894;42.768;23.404;2023-04-26T07:48:43;94775.34;;;14.35;100.00
11676;BME280;5894;42.768;23.404;2023-04-26T07:51:10;94774.53;;;14.31;100.00
11676;BME280;5894;42.768;23.404;2023-04-26T07:53:39;94782.00;;;14.41;100.00
11676;BME280;5894;42.768;23.404;2023-04-26T07:56:07;94773.69;;;14.43;100.00
11676;BME280;5894;42.768;23.404;2023-04-26T07:58:34;94769.38;;;14.54;100.00
11676;BME280;5894;42.768;23.404;2023-04-26T08:01:02;94765.69;;;14.58;100.00
11676;BME280;5894;42.768;23.404;2023-04-26T08:03:29;94773.03;;;14.65;100.00
11676;BME280;5894;42.768;23.404;2023-04-26T08:05:55;94764.47;;;14.72;100.00
11676;BME280;5894;42.768;23.404;2023-04-26T08:08:24;94772.66;;;14.82;100.00
11676;BME280;5894;42.768;23.404;2023-04-26T08:10:53;94771.56;;;14.83;100.00
11676;BME280;5894;42.768;23.404;2023-04-26T08:13:21;94774.69;;;14.89;100.00
11676;BME280;5894;42.768;23.404;2023-04-26T08:15:47;94780.00;;;14.89;100.00
11676;BME280;5894;42.768;23.404;2023-04-26T08:18:14;94775.38;;;14.86;100.00
11676;BME280;5894;42.768;23.404;2023-04-26T08:20:41;94770.06;;;14.86;100.00
11676;BME280;5894;42.768;23.404;2023-04-26T08:23:08;94772.72;;;14.86;100.00
11676;BME280;5894;42.768;23.404;2023-04-26T08:25:35;94748.03;;;14.66;100.00
11676;BME280;5894;42.768;23.404;2023-04-26T08:28:03;94772.38;;;14.87;100.00
11676;BME280;5894;42.768;23.404;2023-04-26T08:30:32;94770.16;;;14.89;100.00
11676;BME280;5894;42.768;23.404;2023-04-26T08:32:59;94768.41;;;14.97;100.00
11676;BME280;5894;42.768;23.404;2023-04-26T08:35:26;94768.19;;;14.86;100.00
11676;BME280;5894;42.768;23.404;2023-04-26T08:37:52;94764.50;;;14.91;100.00
11676;BME280;5894;42.768;23.404;2023-04-26T08:40:23;94753.03;;;14.87;100.00
11676;BME280;5894;42.768;23.404;2023-04-26T08:42:50;94757.03;;;14.96;100.00
11676;BME280;5894;42.768;23.404;2023-04-26T08:45:20;94756.84;;;15.05;100.00
11676;BME280;5894;42.768;23.404;2023-04-26T08:47:48;94750.13;;;15.11;100.00
11676;BME280;5894;42.768;23.404;2023-04-26T08:50:18;94758.19;;;15.15;100.00
11676;BME280;5894;42.768;23.404;2023-04-26T08:52:47;94732.75;;;15.14;100.00
11676;BME280;5894;42.768;23.404;2023-04-26T08:55:16;94756.00;;;15.39;100.00
11676;BME280;5894;42.768;23.404;2023-04-26T08:57:45;94757.88;;;15.39;100.00
11676;BME280;5894;42.768;23.404;2023-04-26T09:00:13;94766.63;;;15.39;100.00
11676;BME280;5894;42.768;23.404;2023-04-26T09:02:45;94757.53;;;15.40;100.00
11676;BME280;5894;42.768;23.404;2023-04-26T09:05:12;94768.72;;;15.50;100.00
11676;BME280;5894;42.768;23.404;2023-04-26T09:07:40;94761.69;;;15.57;100.00
11676;BME280;5894;42.768;23.404;2023-04-26T09:10:09;94766.81;;;15.69;100.00
11676;BME280;5894;42.768;23.404;2023-04-26T09:12:37;94764.66;;;15.75;100.00
11676;BME280;5894;42.768;23.404;2023-04-26T09:15:05;94758.03;;;15.65;100.00
11676;BME280;5894;42.768;23.404;2023-04-26T09:17:34;94769.09;;;15.67;99.58
11676;BME280;5894;42.768;23.404;2023-04-26T09:20:17;94779.13;;;15.58;99.47
11676;BME280;5894;42.768;23.404;2023-04-26T09:22:45;94763.34;;;15.46;99.46
11676;BME280;5894;42.768;23.404;2023-04-26T09:25:26;94762.28;;;15.51;100.00
11676;BME280;5894;42.768;23.404;2023-04-26T09:27:53;94758.03;;;15.46;100.00
11676;BME280;5894;42.768;23.404;2023-04-26T09:30:21;94770.78;;;15.56;100.00
11676;BME280;5894;42.768;23.404;2023-04-26T09:32:50;94779.28;;;15.46;99.44
11676;BME280;5894;42.768;23.404;2023-04-26T09:35:24;94781.75;;;15.35;99.93
11676;BME280;5894;42.768;23.404;2023-04-26T09:37:52;94781.91;;;15.27;100.00
11676;BME280;5894;42.768;23.404;2023-04-26T09:40:20;94783.25;;;15.17;100.00
11676;BME280;5894;42.768;23.404;2023-04-26T09:42:55;94779.38;;;14.95;100.00
11676;BME280;5894;42.768;23.404;2023-04-26T09:45:23;94779.91;;;14.85;100.00
11676;BME280;5894;42.768;23.404;2023-04-26T09:47:50;94772.00;;;14.69;100.00
11676;BME280;5894;42.768;23.404;2023-04-26T09:50:29;94777.75;;;14.56;100.00
11676;BME280;5894;42.768;23.404;2023-04-26T09:52:57;94777.47;;;14.42;100.00
11676;BME280;5894;42.768;23.404;2023-04-26T09:55:28;94777.56;;;14.33;100.00
11676;BME280;5894;42.768;23.404;2023-04-26T09:57:55;94775.44;;;14.23;100.00
11676;BME280;5894;42.768;23.404;2023-04-26T10:00:25;94761.09;;;14.08;100.00
11676;BME280;5894;42.768;23.404;2023-04-26T10:02:53;94781.47;;;14.20;100.00
11676;BME280;5894;42.768;23.404;2023-04-26T10:05:20;94780.91;;;14.14;100.00
11676;BME280;5894;42.768;23.404;2023-04-26T10:07:49;94780.66;;;14.04;100.00
11676;BME280;5894;42.768;23.404;2023-04-26T10:10:17;94770.50;;;14.06;100.00
11676;BME280;5894;42.768;23.404;2023-04-26T10:12:44;94760.84;;;13.98;100.00
11676;BME280;5894;42.768;23.404;2023-04-26T10:15:11;94775.19;;;14.12;100.00
11676;BME280;5894;42.768;23.404;2023-04-26T10:17:38;94777.94;;;14.16;100.00
11676;BME280;5894;42.768;23.404;2023-04-26T10:20:10;94774.50;;;14.15;100.00
11676;BME280;5894;42.768;23.404;2023-04-26T10:22:49;94772.81;;;14.07;97.89
11676;BME280;5894;42.768;23.404;2023-04-26T10:25:19;94769.22;;;14.00;98.80
11676;BME280;5894;42.768;23.404;2023-04-26T10:27:47;94746.13;;;13.84;97.84
11676;BME280;5894;42.768;23.404;2023-04-26T10:30:14;94742.00;;;13.71;98.20
11676;BME280;5894;42.768;23.404;2023-04-26T10:33:15;94761.41;;;13.75;98.16
11676;BME280;5894;42.768;23.404;2023-04-26T10:36:09;94763.13;;;13.68;96.29
11676;BME280;5894;42.768;23.404;2023-04-26T10:38:39;94717.41;;;13.27;96.17
11676;BME280;5894;42.768;23.404;2023-04-26T10:41:30;94773.28;;;13.66;94.21
11676;BME280;5894;42.768;23.404;2023-04-26T10:43:59;94767.72;;;13.71;98.13
11676;BME280;5894;42.768;23.404;2023-04-26T10:46:36;94735.03;;;13.51;94.23
11676;BME280;5894;42.768;23.404;2023-04-26T10:49:14;94754.06;;;13.69;93.52
11676;BME280;5894;42.768;23.404;2023-04-26T10:52:08;94764.56;;;13.81;92.97
11676;BME280;5894;42.768;23.404;2023-04-26T10:54:45;94724.47;;;13.67;90.95
11676;BME280;5894;42.768;23.404;2023-04-26T10:57:14;94764.84;;;14.07;82.87
11676;BME280;5894;42.768;23.404;2023-04-26T11:02:46;94747.56;;;14.29;93.56
11676;BME280;5894;42.768;23.404;2023-04-26T11:05:33;94754.47;;;14.33;89.66
11676;BME280;5894;42.768;23.404;2023-04-26T11:08:04;94753.91;;;14.40;83.14
11676;BME280;5894;42.768;23.404;2023-04-26T11:10:31;94751.28;;;14.40;88.38
11676;BME280;5894;42.768;23.404;2023-04-26T11:13:02;94771.09;;;14.46;83.19
11676;BME280;5894;42.768;23.404;2023-04-26T11:15:30;94736.69;;;14.34;86.31
11676;BME280;5894;42.768;23.404;2023-04-26T11:17:57;94754.06;;;14.47;88.39
11676;BME280;5894;42.768;23.404;2023-04-26T11:20:27;94754.59;;;14.53;85.02
11676;BME280;5894;42.768;23.404;2023-04-26T11:22:55;94753.63;;;14.45;82.12
11676;BME280;5894;42.768;23.404;2023-04-26T11:25:23;94751.84;;;14.49;84.62
11676;BME280;5894;42.768;23.404;2023-04-26T11:27:50;94753.97;;;14.59;86.32
11676;BME280;5894;42.768;23.404;2023-04-26T11:30:18;94748.38;;;14.64;77.77
11676;BME280;5894;42.768;23.404;2023-04-26T11:32:45;94754.69;;;14.76;77.33
11676;BME280;5894;42.768;23.404;2023-04-26T11:35:13;94758.69;;;14.85;77.58
11676;BME280;5894;42.768;23.404;2023-04-26T11:37:40;94754.22;;;14.89;78.36
11676;BME280;5894;42.768;23.404;2023-04-26T11:40:09;94752.09;;;14.95;77.47
11676;BME280;5894;42.768;23.404;2023-04-26T11:42:36;94753.81;;;15.06;79.01
11676;BME280;5894;42.768;23.404;2023-04-26T11:45:04;94756.28;;;15.15;74.87
11676;BME280;5894;42.768;23.404;2023-04-26T11:47:34;94750.97;;;15.15;74.62
11676;BME280;5894;42.768;23.404;2023-04-26T11:50:02;94754.53;;;15.23;73.22
11676;BME280;5894;42.768;23.404;2023-04-26T11:52:29;94750.25;;;15.18;72.83
11676;BME280;5894;42.768;23.404;2023-04-26T11:55:04;94746.22;;;15.05;72.53
11676;BME280;5894;42.768;23.404;2023-04-26T11:57:31;94744.13;;;14.95;77.33
11676;BME280;5894;42.768;23.404;2023-04-26T12:00:12;94746.78;;;14.95;76.49
11676;BME280;5894;42.768;23.404;2023-04-26T12:02:44;94749.06;;;14.96;77.53
11676;BME280;5894;42.768;23.404;2023-04-26T12:05:20;94719.63;;;14.66;77.08
11676;BME280;5894;42.768;23.404;2023-04-26T12:07:51;94745.28;;;14.78;80.18
11676;BME280;5894;42.768;23.404;2023-04-26T12:10:20;94737.94;;;14.72;80.52
11676;BME280;5894;42.768;23.404;2023-04-26T12:12:47;94733.66;;;14.67;79.97
11676;BME280;5894;42.768;23.404;2023-04-26T12:15:15;94730.75;;;14.72;80.87
11676;BME280;5894;42.768;23.404;2023-04-26T12:17:58;94742.81;;;14.69;79.41
11676;BME280;5894;42.768;23.404;2023-04-26T12:20:30;94737.00;;;14.64;77.69
11676;BME280;5894;42.768;23.404;2023-04-26T12:23:04;94738.69;;;14.53;79.56
11676;BME280;5894;42.768;23.404;2023-04-26T12:25:32;94733.38;;;14.53;80.58
11676;BME280;5894;42.768;23.404;2023-04-26T12:28:00;94739.00;;;14.51;85.09
11676;BME280;5894;42.768;23.404;2023-04-26T12:30:27;94737.03;;;14.48;85.15
11676;BME280;5894;42.768;23.404;2023-04-26T12:33:02;94740.03;;;14.47;83.98
11676;BME280;5894;42.768;23.404;2023-04-26T12:35:30;94738.50;;;14.46;79.77
11676;BME280;5894;42.768;23.404;2023-04-26T12:37:57;94738.25;;;14.51;81.06
11676;BME280;5894;42.768;23.404;2023-04-26T12:40:25;94730.00;;;14.56;79.10
11676;BME280;5894;42.768;23.404;2023-04-26T12:42:53;94732.84;;;14.63;72.48
11676;BME280;5894;42.768;23.404;2023-04-26T12:45:21;94738.47;;;14.61;74.99
11676;BME280;5894;42.768;23.404;2023-04-26T12:47:48;94739.44;;;14.53;70.67
11676;BME280;5894;42.768;23.404;2023-04-26T12:50:16;94734.47;;;14.52;69.60
11676;BME280;5894;42.768;23.404;2023-04-26T12:52:43;94732.41;;;14.45;72.86
11676;BME280;5894;42.768;23.404;2023-04-26T12:55:12;94729.44;;;14.47;76.84
11676;BME280;5894;42.768;23.404;2023-04-26T12:57:41;94722.88;;;14.41;80.19
11676;BME280;5894;42.768;23.404;2023-04-26T13:00:10;94729.59;;;14.38;82.47
11676;BME280;5894;42.768;23.404;2023-04-26T13:02:38;94729.34;;;14.43;75.31
11676;BME280;5894;42.768;23.404;2023-04-26T13:05:05;94738.56;;;14.33;80.25
11676;BME280;5894;42.768;23.404;2023-04-26T13:07:35;94739.94;;;14.27;83.05